Addison, Alabama
Current Conditions -  °F | °C
As of 10:15 AM on Friday 21 Nov 2014 (Local Time) from KCMD Reporting Station
Clear Clear  
Wind Chill: 51°   Ceiling: Unl
Heat Index: 51°   Visibility: 10mi
Dew Point: 30°   Wind: 7mph
Humidity: 45%   Direction: 110°ESE
Pressure: 30.42"   Gusts: NA
Location:  34.2°N, 87.18°W
Report Text: KCMD 211615Z AUTO 11006KT 10SM CLR 11/M01 A3042 RMK AO2 T01051009
Loading
Personal Weather Stations






























Interactive Weather Map New forecast layout! Learn more

10-Day Weather Forecast

Advertisements
Track Severe Weather on mobile